Time;durP1;ratioP1;P1;durP2;ratioP2;P2;SDS_P1;SDS_P2;PMS_P1;PMS_P2;Temp;Humidity;BMP_temperature;BMP_pressure;BME280_temperature;BME280_humidity;BME280_pressure;Samples;Min_cycle;Max_cycle;Signal;HPM_P1;HPM_P2
2023/05/28 00:01:49;;;;;;;29.17;11.32;;;;;;;13.19;87.35;102392.09;6098679;19;20018;-77
2023/05/28 00:03:57;;;;;;;28.30;10.55;;;;;;;13.15;87.99;102388.69;6100116;19;20413;-77
2023/05/28 00:06:09;;;;;;;26.65;11.85;;;;;;;13.17;87.86;102380.75;6099423;19;20003;-76
2023/05/28 00:08:14;;;;;;;29.33;10.80;;;;;;;13.14;87.72;102381.69;6098606;19;20027;-78
2023/05/28 00:10:24;;;;;;;31.17;11.32;;;;;;;13.14;87.96;102378.19;6100614;19;20050;-76
2023/05/28 00:12:32;;;;;;;26.55;11.82;;;;;;;13.07;87.71;102384.53;6107866;19;20444;-78
2023/05/28 00:14:37;;;;;;;27.10;10.73;;;;;;;13.01;88.34;102388.19;6101769;19;20043;-78
2023/05/28 00:16:44;;;;;;;30.23;12.02;;;;;;;13.04;88.46;102379.34;6101515;19;20560;-77
2023/05/28 00:18:50;;;;;;;33.28;12.95;;;;;;;13.09;89.16;102380.09;6106026;19;20032;-76
2023/05/28 00:21:00;;;;;;;32.13;11.90;;;;;;;13.09;88.52;102369.53;6112924;19;20086;-77
2023/05/28 00:23:09;;;;;;;33.72;13.73;;;;;;;13.13;88.38;102371.16;6104829;19;20910;-77
2023/05/28 00:25:15;;;;;;;35.05;13.57;;;;;;;13.14;88.85;102362.34;6107283;19;19999;-78
2023/05/28 00:27:25;;;;;;;33.97;13.98;;;;;;;13.14;88.99;102359.72;6104765;19;20025;-77
2023/05/28 00:29:30;;;;;;;31.98;13.80;;;;;;;13.14;88.52;102357.06;6108746;19;20015;-77
2023/05/28 00:31:37;;;;;;;41.78;13.23;;;;;;;13.12;88.60;102359.75;6102320;19;20611;-76
2023/05/28 00:33:51;;;;;;;40.15;14.25;;;;;;;13.10;88.95;102358.91;6103302;19;20463;-77
2023/05/28 00:35:58;;;;;;;39.20;14.82;;;;;;;13.10;88.80;102351.00;6107440;19;20447;-77
2023/05/28 00:38:04;;;;;;;40.90;15.48;;;;;;;13.05;88.87;102352.88;6104731;19;20493;-77
2023/05/28 00:40:11;;;;;;;40.58;14.40;;;;;;;13.02;88.50;102346.84;6103063;19;20552;-76
2023/05/28 00:42:24;;;;;;;38.33;13.57;;;;;;;12.98;88.83;102353.09;6106733;19;20582;-76
2023/05/28 00:44:29;;;;;;;42.92;14.88;;;;;;;12.95;88.89;102340.84;6103955;19;20014;-76
2023/05/28 00:46:35;;;;;;;44.53;15.57;;;;;;;12.92;89.43;102340.91;6103286;19;20073;-76
2023/05/28 00:48:40;;;;;;;44.00;14.32;;;;;;;12.88;89.35;102342.78;6104775;19;20047;-77
2023/05/28 00:50:50;;;;;;;47.10;14.57;;;;;;;12.85;89.04;102339.34;6099329;19;20464;-77
2023/05/28 00:52:58;;;;;;;43.75;14.20;;;;;;;12.83;89.78;102341.19;6095430;19;20023;-78
2023/05/28 00:55:15;;;;;;;41.55;16.50;;;;;;;12.83;89.59;102339.41;6078713;19;20091;-77
2023/05/28 00:57:23;;;;;;;49.55;15.13;;;;;;;12.85;89.40;102341.97;6102564;19;20006;-77
2023/05/28 00:59:36;;;;;;;48.47;15.57;;;;;;;12.82;89.83;102344.69;6099800;19;20003;-78
2023/05/28 01:01:42;;;;;;;44.08;14.55;;;;;;;12.79;89.69;102335.09;6082286;19;20635;-77
2023/05/28 01:03:51;;;;;;;39.10;14.10;;;;;;;12.77;90.10;102343.94;6103577;19;20647;-78
2023/05/28 01:06:02;;;;;;;49.33;14.75;;;;;;;12.74;89.38;102344.91;6102308;19;20015;-78
2023/05/28 01:08:12;;;;;;;49.75;15.63;;;;;;;12.72;89.56;102342.31;6101580;19;20007;-76
2023/05/28 01:10:21;;;;;;;53.10;15.77;;;;;;;12.65;89.78;102330.19;6102311;19;20074;-78
2023/05/28 01:12:31;;;;;;;59.53;15.60;;;;;;;12.65;89.94;102329.31;6098502;19;20077;-77
2023/05/28 01:14:38;;;;;;;42.67;16.58;;;;;;;12.65;90.13;102330.19;6102110;19;19999;-79
2023/05/28 01:16:48;;;;;;;55.10;16.13;;;;;;;12.64;90.90;102325.81;6100962;19;20105;-78
2023/05/28 01:18:56;;;;;;;45.97;15.80;;;;;;;12.64;90.49;102330.22;6099413;19;20074;-76
2023/05/28 01:21:10;;;;;;;49.65;16.25;;;;;;;12.64;90.76;102338.16;6095862;19;20577;-76
2023/05/28 01:23:23;;;;;;;48.55;15.40;;;;;;;12.60;90.88;102334.69;6099108;19;20036;-76
2023/05/28 01:25:37;;;;;;;41.50;15.25;;;;;;;12.57;91.02;102339.19;6106372;19;20519;-76
2023/05/28 01:27:47;;;;;;;47.83;14.55;;;;;;;12.55;91.31;102335.72;6107426;19;20018;-77
2023/05/28 01:30:01;;;;;;;44.30;14.65;;;;;;;12.54;90.94;102336.63;6108186;19;20019;-75
2023/05/28 01:32:09;;;;;;;50.38;16.38;;;;;;;12.50;90.69;102341.09;6107511;19;20010;-76
2023/05/28 01:34:16;;;;;;;52.13;15.18;;;;;;;12.45;91.06;102335.06;6108517;19;20003;-77
2023/05/28 01:36:28;;;;;;;43.90;13.13;;;;;;;12.46;91.33;102332.41;6110088;19;20058;-77
2023/05/28 01:38:40;;;;;;;44.50;14.07;;;;;;;12.43;91.13;102337.75;6110289;19;20009;-77
2023/05/28 01:40:56;;;;;;;50.00;15.73;;;;;;;12.33;92.17;102340.66;6105247;19;20289;-77
2023/05/28 01:43:05;;;;;;;64.20;16.42;;;;;;;12.26;93.01;102338.16;6109650;19;20026;-76
2023/05/28 01:45:15;;;;;;;54.00;18.02;;;;;;;12.27;93.18;102337.25;6112558;19;20032;-77
2023/05/28 01:47:25;;;;;;;56.90;18.45;;;;;;;12.24;92.79;102336.44;6111265;19;20002;-76
2023/05/28 01:49:43;;;;;;;50.33;16.02;;;;;;;12.28;92.39;102346.91;6113023;19;20019;-77
2023/05/28 01:51:52;;;;;;;57.95;16.90;;;;;;;12.24;92.78;102347.00;6112838;19;20011;-78
2023/05/28 01:54:01;;;;;;;46.60;15.13;;;;;;;12.24;92.50;102344.34;6116241;19;20112;-77
2023/05/28 01:56:10;;;;;;;56.75;16.55;;;;;;;12.27;92.76;102346.94;6106286;19;20022;-78
2023/05/28 01:58:17;;;;;;;48.47;17.50;;;;;;;12.24;92.68;102337.34;6107258;19;20015;-78
2023/05/28 02:00:25;;;;;;;45.30;17.60;;;;;;;12.21;92.75;102332.13;6101974;19;20023;-76
2023/05/28 02:02:34;;;;;;;45.08;15.85;;;;;;;12.18;92.97;102337.47;6101667;19;20018;-77
2023/05/28 02:04:42;;;;;;;47.97;15.75;;;;;;;12.19;92.63;102327.78;6102902;19;20713;-77
2023/05/28 02:06:50;;;;;;;44.47;16.08;;;;;;;12.19;92.89;102333.06;6103712;19;20035;-77
2023/05/28 02:08:59;;;;;;;54.55;15.60;;;;;;;12.16;93.30;102341.91;6081905;19;20039;-78
2023/05/28 02:11:05;;;;;;;45.30;15.75;;;;;;;12.17;93.31;102334.88;6098672;19;20007;-78
2023/05/28 02:13:16;;;;;;;45.58;14.40;;;;;;;12.15;93.59;102326.13;6102796;19;20006;-78
2023/05/28 02:15:26;;;;;;;42.50;14.20;;;;;;;12.16;93.77;102330.50;6099214;19;20349;-78
2023/05/28 02:17:38;;;;;;;44.13;14.15;;;;;;;12.12;93.61;102321.81;6100108;19;20021;-77
2023/05/28 02:19:49;;;;;;;46.45;14.25;;;;;;;12.17;93.68;102321.72;6102838;19;20006;-76
2023/05/28 02:21:55;;;;;;;44.35;14.90;;;;;;;12.13;93.60;102310.34;6092900;19;20027;-78
2023/05/28 02:24:00;;;;;;;38.53;13.05;;;;;;;12.07;93.40;102316.63;6103568;19;20018;-77
2023/05/28 02:26:08;;;;;;;43.40;14.27;;;;;;;12.05;93.68;102328.09;6102048;19;20668;-77
2023/05/28 02:28:16;;;;;;;38.83;13.10;;;;;;;12.00;93.88;102325.56;6098356;19;20013;-77
2023/05/28 02:30:21;;;;;;;30.92;12.43;;;;;;;11.97;93.73;102322.16;6102329;19;20010;-77
2023/05/28 02:32:32;;;;;;;36.05;13.52;;;;;;;11.92;94.19;102324.03;6096924;19;20003;-77
2023/05/28 02:34:47;;;;;;;;;;;;;;;11.90;93.86;102328.44;6100289;19;20015;-76
2023/05/28 02:37:00;;;;;;;35.15;11.77;;;;;;;11.83;93.98;102328.56;6098310;19;20148;-79
2023/05/28 02:39:06;;;;;;;32.47;11.88;;;;;;;11.84;94.18;102326.78;6102791;19;20655;-77
2023/05/28 02:41:12;;;;;;;31.42;11.52;;;;;;;11.81;94.64;102330.34;6104138;19;20034;-78
2023/05/28 02:43:22;;;;;;;23.42;10.57;;;;;;;11.79;94.21;102333.91;6098727;19;20026;-77
2023/05/28 02:45:30;;;;;;;31.30;12.27;;;;;;;11.79;94.55;102337.41;6099984;19;20003;-78
2023/05/28 02:47:42;;;;;;;25.48;11.50;;;;;;;11.81;94.41;102332.13;6098191;19;20019;-77
2023/05/28 02:49:47;;;;;;;28.27;10.85;;;;;;;11.77;94.69;102340.97;6097881;19;20116;-77
2023/05/28 02:51:58;;;;;;;34.13;13.40;;;;;;;11.75;95.27;102330.50;6099755;19;20510;-79
2023/05/28 02:54:06;;;;;;;31.40;11.68;;;;;;;11.76;95.07;102337.50;6094648;19;20010;-77
2023/05/28 02:56:17;;;;;;;28.55;10.77;;;;;;;11.76;94.71;102344.53;6099896;19;20011;-77
2023/05/28 02:58:25;;;;;;;23.58;10.20;;;;;;;11.76;94.80;102340.13;6098105;19;20017;-78
2023/05/28 03:00:33;;;;;;;28.73;11.07;;;;;;;11.76;95.23;102344.53;6098036;19;20482;-78
2023/05/28 03:02:39;;;;;;;29.40;10.48;;;;;;;11.77;95.37;102343.63;6092439;19;20345;-78
2023/05/28 03:04:52;;;;;;;28.02;11.68;;;;;;;11.73;95.16;102342.81;6097857;19;20003;-77
2023/05/28 03:07:00;;;;;;;25.75;10.43;;;;;;;11.67;95.46;102350.00;6107483;19;20048;-81
2023/05/28 03:09:06;;;;;;;23.50;10.48;;;;;;;11.66;95.77;102343.84;6107285;19;20246;-79
2023/05/28 03:11:13;;;;;;;28.05;11.10;;;;;;;11.63;95.43;102349.19;6108007;19;20039;-80
2023/05/28 03:13:25;;;;;;;28.48;10.25;;;;;;;11.67;95.75;102342.97;6108891;19;20585;-79
2023/05/28 03:15:31;;;;;;;28.83;9.57;;;;;;;11.66;95.21;102335.94;6107582;19;20007;-81
2023/05/28 03:17:38;;;;;;;25.55;10.05;;;;;;;11.66;95.40;102338.59;6105470;19;20042;-80
2023/05/28 03:19:51;;;;;;;21.77;10.32;;;;;;;11.67;95.15;102329.81;6107787;19;20060;-80
2023/05/28 03:21:56;;;;;;;24.05;10.55;;;;;;;11.65;95.47;102347.38;6104304;19;20221;-80
2023/05/28 03:24:02;;;;;;;21.48;10.60;;;;;;;11.61;95.39;102343.06;6106639;19;20006;-81
2023/05/28 03:26:25;;;;;;;24.92;10.70;;;;;;;11.65;95.37;102339.50;6105805;19;20017;-78
2023/05/28 03:28:41;;;;;;;24.00;9.90;;;;;;;11.63;95.56;102338.66;6099647;19;20042;-79
2023/05/28 03:30:58;;;;;;;26.00;9.32;;;;;;;11.64;95.43;102343.91;6097348;19;20058;-79
2023/05/28 03:33:09;;;;;;;23.20;10.43;;;;;;;11.57;95.63;102341.41;6097221;19;20327;-78
2023/05/28 03:35:22;;;;;;;23.27;10.05;;;;;;;11.58;95.34;102346.63;6097818;19;20002;-80
2023/05/28 03:37:30;;;;;;;21.48;9.70;;;;;;;11.54;95.35;102350.25;6102442;19;20031;-79
2023/05/28 03:39:35;;;;;;;25.75;11.48;;;;;;;11.50;95.52;102347.69;6099648;19;20428;-80
2023/05/28 03:41:44;;;;;;;22.08;10.20;;;;;;;11.51;95.58;102345.06;6099212;19;20414;-79
2023/05/28 03:43:56;;;;;;;24.42;10.75;;;;;;;11.51;95.52;102349.44;6101539;19;20758;-80
2023/05/28 03:46:09;;;;;;;26.23;10.38;;;;;;;11.48;95.78;102344.22;6102258;19;20029;-81
2023/05/28 03:48:15;;;;;;;21.73;9.85;;;;;;;11.46;95.69;102348.69;6102694;19;20031;-79
2023/05/28 03:50:32;;;;;;;25.95;10.23;;;;;;;11.46;95.69;102341.63;6099899;19;20002;-80
2023/05/28 03:52:45;;;;;;;20.95;9.32;;;;;;;11.48;95.40;102347.75;6101044;19;20069;-79
2023/05/28 03:54:56;;;;;;;21.17;10.10;;;;;;;11.45;95.26;102352.19;6106126;19;20048;-79
2023/05/28 03:57:06;;;;;;;25.27;10.13;;;;;;;11.37;95.46;102342.69;6108895;19;20091;-80
2023/05/28 03:59:18;;;;;;;22.95;9.43;;;;;;;11.38;95.87;102344.41;6109824;19;20101;-80
2023/05/28 04:01:26;;;;;;;19.10;9.68;;;;;;;11.38;95.73;102343.56;6110674;19;20003;-81
2023/05/28 04:03:33;;;;;;;28.83;10.73;;;;;;;11.39;96.04;102351.41;6106465;19;20459;-80
2023/05/28 04:05:38;;;;;;;21.05;9.10;;;;;;;11.39;95.83;102345.28;6110187;19;20078;-79
2023/05/28 04:07:50;;;;;;;25.40;10.95;;;;;;;11.39;95.66;102350.53;6104179;19;20010;-78
2023/05/28 04:10:00;;;;;;;25.15;11.23;;;;;;;11.35;95.65;102352.38;6105563;19;20010;-76
2023/05/28 04:12:10;;;;;;;22.67;10.00;;;;;;;11.35;95.69;102348.91;6105913;19;20017;-78
2023/05/28 04:14:20;;;;;;;23.10;10.63;;;;;;;11.36;95.65;102353.25;6107249;19;20051;-78
2023/05/28 04:16:26;;;;;;;27.80;11.77;;;;;;;11.35;95.96;102355.00;6107869;19;20760;-78
2023/05/28 04:18:38;;;;;;;25.15;10.27;;;;;;;11.36;95.89;102359.38;6091062;19;20010;-78
2023/05/28 04:20:45;;;;;;;29.48;11.30;;;;;;;11.35;95.63;102362.91;6113246;19;20010;-78
2023/05/28 04:22:56;;;;;;;26.65;10.00;;;;;;;11.35;96.11;102359.41;6111990;19;20002;-78
2023/05/28 04:25:01;;;;;;;24.90;10.65;;;;;;;11.40;95.73;102370.69;6113216;19;20010;-78
2023/05/28 04:27:18;;;;;;;25.67;10.40;;;;;;;11.39;95.91;102377.72;6112026;19;20018;-76
2023/05/28 04:29:29;;;;;;;29.00;11.20;;;;;;;11.41;96.33;102380.34;6108881;19;20015;-78
2023/05/28 04:31:42;;;;;;;24.55;10.05;;;;;;;11.45;95.60;102381.13;6111895;19;20047;-78
2023/05/28 04:33:54;;;;;;;26.33;11.60;;;;;;;11.49;95.52;102372.31;6113140;19;20011;-79
2023/05/28 04:36:04;;;;;;;28.33;9.63;;;;;;;11.50;95.47;102368.75;6106797;19;20006;-82
2023/05/28 04:38:15;;;;;;;24.88;11.35;;;;;;;11.54;95.33;102370.44;6116329;19;20049;-80
2023/05/28 04:40:21;;;;;;;29.40;11.57;;;;;;;11.62;95.34;102376.44;6116230;19;20002;-80
2023/05/28 04:42:30;;;;;;;26.52;11.88;;;;;;;11.69;95.17;102371.88;6116607;19;20007;-80
2023/05/28 04:44:45;;;;;;;27.20;10.88;;;;;;;11.76;95.13;102371.72;6117512;19;20800;-81
2023/05/28 04:46:55;;;;;;;27.27;11.13;;;;;;;11.84;94.94;102369.78;6108614;19;20222;-81
2023/05/28 04:49:07;;;;;;;34.70;12.10;;;;;;;11.94;94.69;102364.38;6115844;19;20007;-80
2023/05/28 04:53:31;;;;;;;30.27;12.20;;;;;;;12.15;94.35;102363.03;6120949;19;20031;-82
2023/05/28 04:55:37;;;;;;;27.30;11.07;;;;;;;12.27;94.11;102375.94;6121039;19;20609;-81
2023/05/28 04:57:45;;;;;;;29.65;11.55;;;;;;;12.36;93.61;102372.22;6118462;19;20013;-81
2023/05/28 05:00:02;;;;;;;27.77;11.35;;;;;;;12.51;93.28;102366.59;6115404;19;20832;-80
2023/05/28 05:02:09;;;;;;;25.00;11.23;;;;;;;12.61;92.83;102367.22;6115881;19;20090;-81
2023/05/28 05:04:21;;;;;;;35.78;12.25;;;;;;;12.73;92.56;102370.41;6115330;19;20495;-81
2023/05/28 05:06:38;;;;;;;30.58;11.65;;;;;;;12.89;91.80;102372.66;6108376;19;20014;-82
2023/05/28 05:08:45;;;;;;;32.17;12.25;;;;;;;13.05;91.77;102371.34;6111358;19;20013;-82
2023/05/28 05:10:55;;;;;;;26.27;12.15;;;;;;;13.20;90.70;102370.09;6103798;19;20019;-80
2023/05/28 05:13:05;;;;;;;27.33;11.88;;;;;;;13.35;90.42;102366.22;6108433;19;20010;-82
2023/05/28 05:15:18;;;;;;;35.40;12.60;;;;;;;13.46;89.84;102358.84;6111329;19;20017;-81
2023/05/28 05:17:24;;;;;;;27.42;11.70;;;;;;;13.59;88.38;102365.50;6109006;19;20010;-80
2023/05/28 05:19:35;;;;;;;24.70;10.95;;;;;;;13.77;88.83;102361.47;6108367;19;20463;-80
2023/05/28 05:21:42;;;;;;;25.95;10.18;;;;;;;13.94;88.51;102360.97;6106177;19;20368;-81
2023/05/28 05:23:50;;;;;;;22.90;11.23;;;;;;;14.05;87.82;102365.91;6104612;19;20047;-81
2023/05/28 05:25:57;;;;;;;26.58;11.23;;;;;;;14.17;86.51;102368.19;6105632;19;20420;-80
2023/05/28 05:28:08;;;;;;;31.13;10.85;;;;;;;14.33;86.08;102368.56;6103625;19;20467;-82
2023/05/28 05:30:19;;;;;;;34.28;11.70;;;;;;;14.50;85.64;102374.16;6105260;19;20053;-81
2023/05/28 05:32:27;;;;;;;30.00;11.40;;;;;;;14.62;84.72;102372.09;6108729;19;20018;-81
2023/05/28 05:34:44;;;;;;;28.20;11.05;;;;;;;14.92;84.67;102376.34;6107986;19;20123;-82
2023/05/28 05:36:50;;;;;;;27.33;11.18;;;;;;;15.15;84.93;102378.19;6100522;19;20492;-82
2023/05/28 05:38:59;;;;;;;30.42;10.82;;;;;;;15.21;82.64;102366.50;6105903;19;20479;-83
2023/05/28 05:41:05;;;;;;;24.27;10.70;;;;;;;15.45;82.53;102375.34;6105964;19;20527;-80
2023/05/28 05:43:17;;;;;;;28.55;10.80;;;;;;;15.45;81.71;102371.84;6104997;19;20011;-81
2023/05/28 05:45:30;;;;;;;25.23;10.13;;;;;;;15.46;80.37;102376.25;6105487;19;20241;-82
2023/05/28 05:47:40;;;;;;;24.80;10.00;;;;;;;15.69;81.25;102370.09;6106718;19;20035;-82
2023/05/28 05:49:46;;;;;;;26.92;10.48;;;;;;;15.69;80.40;102372.75;6104303;19;20015;-83
2023/05/28 05:51:57;;;;;;;29.83;10.52;;;;;;;15.97;79.76;102365.50;6108708;19;20022;-82
2023/05/28 05:54:08;;;;;;;29.85;11.23;;;;;;;16.22;79.14;102362.75;6105456;19;20010;-81
2023/05/28 05:56:35;;;;;;;24.55;10.38;;;;;;;16.35;78.84;102362.22;6103847;19;20035;-80
2023/05/28 05:58:45;;;;;;;25.35;10.50;;;;;;;16.50;77.42;102364.28;6107558;19;20002;-82
2023/05/28 06:00:51;;;;;;;31.52;10.65;;;;;;;16.47;77.09;102375.00;6105748;19;20007;-81
2023/05/28 06:03:06;;;;;;;23.42;9.13;;;;;;;16.81;77.48;102373.66;6100510;19;20253;-80
2023/05/28 06:05:12;;;;;;;23.83;10.07;;;;;;;16.87;76.58;102374.25;6106193;19;20025;-82
2023/05/28 06:07:20;;;;;;;24.45;9.95;;;;;;;17.06;75.74;102369.03;6108758;19;20078;-81
2023/05/28 06:09:31;;;;;;;30.00;10.93;;;;;;;17.30;75.94;102375.06;6108415;19;20010;-81
2023/05/28 06:11:37;;;;;;;27.58;9.02;;;;;;;17.15;74.36;102374.88;6104493;19;20471;-82
2023/05/28 06:13:43;;;;;;;28.00;9.38;;;;;;;17.26;73.71;102369.94;6112465;19;20077;-80
2023/05/28 06:15:50;;;;;;;29.52;9.93;;;;;;;17.17;73.38;102362.34;6111474;19;20058;-81
2023/05/28 06:18:05;;;;;;;25.77;9.38;;;;;;;17.19;73.84;102368.47;6110375;19;20038;-80
2023/05/28 06:20:11;;;;;;;29.95;9.05;;;;;;;17.05;73.68;102377.91;6108338;19;20047;-81
2023/05/28 06:22:17;;;;;;;24.80;8.48;;;;;;;17.22;73.70;102366.56;6106097;19;20355;-81
2023/05/28 06:24:22;;;;;;;24.10;8.70;;;;;;;17.02;72.81;102369.22;6109677;19;20007;-81
2023/05/28 06:26:30;;;;;;;26.15;8.70;;;;;;;16.80;72.91;102369.28;6106759;19;20016;-81
2023/05/28 06:28:43;;;;;;;25.08;7.85;;;;;;;17.08;72.98;102361.84;6108235;19;20010;-81
2023/05/28 06:30:48;;;;;;;24.50;10.00;;;;;;;17.10;71.99;102367.09;6102742;19;20042;-80
2023/05/28 06:32:54;;;;;;;25.38;10.07;;;;;;;17.23;71.83;102370.06;6102867;19;20544;-80
2023/05/28 06:35:07;;;;;;;28.80;9.65;;;;;;;17.55;70.90;102369.47;6101455;19;20035;-81
2023/05/28 06:37:12;;;;;;;21.58;8.05;;;;;;;17.79;71.15;102369.31;6100249;19;20007;-82
2023/05/28 06:39:19;;;;;;;23.63;8.73;;;;;;;17.96;69.98;102363.22;6102583;19;20007;-83
2023/05/28 06:41:25;;;;;;;24.15;8.77;;;;;;;18.28;69.85;102367.00;6102171;19;20043;-81
2023/05/28 06:43:31;;;;;;;23.88;8.98;;;;;;;18.33;69.18;102372.97;6102917;19;20006;-82
2023/05/28 06:45:38;;;;;;;27.73;9.65;;;;;;;18.33;68.22;102364.13;6102582;19;20042;-82
2023/05/28 06:47:43;;;;;;;25.88;9.95;;;;;;;18.26;68.22;102366.22;6099708;19;20007;-81
2023/05/28 06:49:51;;;;;;;25.77;9.63;;;;;;;18.36;68.18;102366.63;6099033;19;20479;-83
2023/05/28 06:52:02;;;;;;;22.45;8.70;;;;;;;18.53;67.62;102363.97;6101860;19;20015;-81
2023/05/28 06:54:07;;;;;;;20.48;8.73;;;;;;;18.86;67.14;102363.28;6089297;19;20046;-82
2023/05/28 06:56:12;;;;;;;28.08;9.40;;;;;;;18.94;65.71;102363.72;6095329;19;20010;-82
2023/05/28 06:58:17;;;;;;;22.98;8.32;;;;;;;18.94;65.46;102360.22;6105151;19;20022;-81
2023/05/28 07:00:30;;;;;;;28.23;8.85;;;;;;;19.23;64.08;102359.53;6102890;19;20010;-80
2023/05/28 07:02:38;;;;;;;19.70;8.35;;;;;;;19.41;63.19;102356.84;6101470;19;20435;-82
2023/05/28 07:04:47;;;;;;;22.38;7.63;;;;;;;19.19;63.39;102365.13;6100251;19;20413;-81
2023/05/28 07:06:56;;;;;;;18.88;8.93;;;;;;;19.43;62.76;102362.94;6102910;19;20545;-81
2023/05/28 07:09:04;;;;;;;24.75;8.73;;;;;;;19.58;61.98;102362.13;6106222;19;20006;-81
2023/05/28 07:11:10;;;;;;;19.58;8.65;;;;;;;19.49;60.50;102358.16;6107138;19;20010;-80
2023/05/28 07:13:15;;;;;;;23.42;8.23;;;;;;;19.83;61.38;102367.03;6110175;19;20014;-82
2023/05/28 07:15:25;;;;;;;23.77;7.57;;;;;;;20.15;59.93;102372.38;6115704;19;20058;-82
2023/05/28 07:17:31;;;;;;;16.55;7.28;;;;;;;20.30;59.15;102386.63;6110772;19;20013;-80
2023/05/28 07:19:37;;;;;;;18.80;7.38;;;;;;;20.26;59.39;102375.28;6112371;19;20058;-81
2023/05/28 07:21:45;;;;;;;23.10;8.68;;;;;;;20.15;58.64;102383.91;6108983;19;20007;-80
2023/05/28 07:23:56;;;;;;;21.30;7.10;;;;;;;20.36;58.82;102386.31;6113255;19;20014;-81
2023/05/28 07:26:08;;;;;;;21.20;7.30;;;;;;;20.52;57.69;102386.28;6111838;19;20421;-82
2023/05/28 07:28:13;;;;;;;17.57;7.40;;;;;;;20.76;57.17;102390.22;6106419;19;20729;-79
2023/05/28 07:30:22;;;;;;;19.98;7.95;;;;;;;20.70;56.65;102387.06;6106909;19;20315;-81
2023/05/28 07:32:29;;;;;;;15.73;7.50;;;;;;;20.48;56.48;102384.72;6101983;19;20113;-81
2023/05/28 07:34:36;;;;;;;18.00;7.30;;;;;;;20.54;56.47;102385.28;6101630;19;20011;-80
2023/05/28 07:36:41;;;;;;;19.95;7.72;;;;;;;20.35;57.19;102390.78;6105649;19;20015;-80
2023/05/28 07:38:46;;;;;;;20.77;8.07;;;;;;;20.56;57.40;102394.06;6101276;19;20044;-81
2023/05/28 07:40:55;;;;;;;22.58;8.38;;;;;;;20.89;56.76;102395.69;6100978;19;20320;-81
2023/05/28 07:43:02;;;;;;;26.05;8.43;;;;;;;20.95;55.42;102403.34;6104258;19;20014;-80
2023/05/28 07:45:16;;;;;;;23.75;7.72;;;;;;;21.16;55.14;102392.31;6100660;19;20025;-82
2023/05/28 07:47:23;;;;;;;19.15;7.47;;;;;;;21.59;54.99;102392.38;6110586;19;20014;-86
2023/05/28 07:49:30;;;;;;;24.00;8.05;;;;;;;21.81;54.50;102387.41;6111144;19;20577;-86
2023/05/28 07:51:42;;;;;;;21.92;7.95;;;;;;;21.79;54.16;102385.78;6109128;19;20023;-85
2023/05/28 07:53:50;;;;;;;;;;;;;;;22.01;53.42;102383.47;6111616;19;20019;-84
2023/05/28 07:56:01;;;;;;;18.65;7.18;;;;;;;22.50;53.38;102384.75;6116725;19;19913;-87
2023/05/28 07:58:11;;;;;;;21.00;7.80;;;;;;;22.77;51.91;102390.94;6116382;19;20015;-87
2023/05/28 08:00:25;;;;;;;22.45;8.60;;;;;;;22.79;52.41;102386.34;6122620;19;20049;-87
2023/05/28 08:02:32;;;;;;;16.63;6.63;;;;;;;22.41;50.48;102396.06;6121048;19;20011;-87
2023/05/28 08:04:47;;;;;;;20.60;7.10;;;;;;;22.23;52.07;102390.13;6121135;19;20074;-86
2023/05/28 08:07:04;;;;;;;23.02;7.40;;;;;;;22.59;51.87;102392.16;6120896;19;20027;-85
2023/05/28 08:09:33;;;;;;;19.48;7.65;;;;;;;22.38;50.71;102390.91;6122738;19;20114;-84
2023/05/28 08:11:45;;;;;;;22.10;6.90;;;;;;;22.33;50.86;102386.75;6118798;19;20011;-86
2023/05/28 08:14:02;;;;;;;16.90;7.90;;;;;;;22.36;50.81;102391.03;6115976;19;20014;-87
2023/05/28 08:16:09;;;;;;;21.45;7.55;;;;;;;22.30;49.70;102386.94;6118553;19;20020;-85
2023/05/28 08:18:32;;;;;;;20.58;6.55;;;;;;;22.62;50.37;102385.75;6113495;19;20022;-87
2023/05/28 08:20:42;;;;;;;16.92;6.78;;;;;;;22.60;49.86;102385.88;6113240;19;20027;-85
2023/05/28 08:22:56;;;;;;;17.55;6.40;;;;;;;22.65;49.18;102385.56;6081977;19;20010;-88
2023/05/28 08:25:20;;;;;;;17.70;6.95;;;;;;;22.68;49.71;102386.22;6119127;19;20014;-86
2023/05/28 08:27:30;;;;;;;17.52;6.03;;;;;;;22.83;50.71;102384.31;6115305;19;20011;-87
2023/05/28 08:29:44;;;;;;;17.38;7.38;;;;;;;22.90;49.11;102379.38;6113859;19;20465;-85
2023/05/28 08:31:53;;;;;;;21.48;7.38;;;;;;;22.58;48.79;102375.25;6116418;19;20007;-87
2023/05/28 08:34:01;;;;;;;16.67;6.85;;;;;;;22.95;47.70;102387.97;6093648;19;20010;-85
2023/05/28 08:36:10;;;;;;;18.48;6.55;;;;;;;23.10;47.52;102384.28;6105512;19;20007;-85
2023/05/28 08:38:21;;;;;;;14.98;6.18;;;;;;;23.02;48.28;102388.47;6101887;19;20017;-86
2023/05/28 08:40:26;;;;;;;21.45;6.65;;;;;;;22.94;47.87;102381.75;6103450;19;20015;-85
2023/05/28 08:42:33;;;;;;;15.95;6.80;;;;;;;22.69;47.22;102376.34;6112013;19;20007;-87
2023/05/28 08:44:41;;;;;;;18.40;6.22;;;;;;;22.73;47.98;102373.34;6109387;19;20081;-83
2023/05/28 08:46:47;;;;;;;22.52;7.03;;;;;;;22.27;47.84;102384.44;6107533;19;20076;-84
2023/05/28 08:48:54;;;;;;;19.45;6.50;;;;;;;22.10;48.94;102372.13;6106357;19;20072;-86
2023/05/28 08:51:00;;;;;;;17.05;5.82;;;;;;;22.06;49.05;102388.50;6106247;19;20052;-85
2023/05/28 08:53:07;;;;;;;15.90;6.70;;;;;;;22.08;48.76;102379.41;6106570;19;20476;-81
2023/05/28 08:55:13;;;;;;;18.33;5.90;;;;;;;21.83;49.48;102376.59;6111162;19;20013;-85
2023/05/28 08:57:19;;;;;;;19.05;6.05;;;;;;;21.99;50.37;102374.66;6110102;19;20313;-83
2023/05/28 08:59:27;;;;;;;20.20;6.30;;;;;;;21.99;49.43;102384.50;6110992;19;20508;-84
2023/05/28 09:01:35;;;;;;;14.63;6.00;;;;;;;22.05;49.18;102373.41;6105489;19;20013;-82
2023/05/28 09:03:46;;;;;;;15.50;5.93;;;;;;;22.13;50.02;102373.75;6106709;19;20009;-83
2023/05/28 09:06:03;;;;;;;18.00;6.10;;;;;;;22.67;49.51;102381.81;6099455;19;20032;-85
2023/05/28 09:08:11;;;;;;;19.52;6.88;;;;;;;22.89;47.33;102377.69;6107825;19;20014;-85
2023/05/28 09:10:17;;;;;;;14.23;6.38;;;;;;;22.79;47.75;102372.94;6102494;19;20054;-85
2023/05/28 09:12:24;;;;;;;17.05;6.05;;;;;;;22.69;47.69;102374.50;6105421;19;20013;-86
2023/05/28 09:14:29;;;;;;;14.98;5.63;;;;;;;22.72;47.39;102374.34;6112399;19;20087;-86
2023/05/28 09:16:37;;;;;;;15.57;5.50;;;;;;;22.84;47.45;102377.13;6108933;19;20006;-86
2023/05/28 09:19:05;;;;;;;16.40;5.28;;;;;;;22.45;47.34;102363.63;6114606;19;20372;-88
2023/05/28 09:21:14;;;;;;;15.57;5.53;;;;;;;22.40;47.23;102375.63;6107854;19;20010;-87
2023/05/28 09:23:20;;;;;;;15.38;6.95;;;;;;;22.28;47.05;102380.81;6113566;19;20006;-85
2023/05/28 09:25:26;;;;;;;14.52;6.35;;;;;;;22.34;46.61;102377.72;6111738;19;20085;-88
2023/05/28 09:27:32;;;;;;;16.23;6.75;;;;;;;22.50;46.09;102380.25;6108707;19;20023;-86
2023/05/28 09:29:37;;;;;;;11.95;5.90;;;;;;;22.86;45.48;102380.59;6108708;19;20015;-87
2023/05/28 09:31:48;;;;;;;17.33;6.30;;;;;;;22.84;44.60;102382.50;6114076;19;20015;-86
2023/05/28 09:33:53;;;;;;;15.73;5.95;;;;;;;22.64;44.92;102371.28;6112355;19;20013;-83
2023/05/28 09:36:03;;;;;;;13.48;5.50;;;;;;;23.03;45.44;102382.13;6115867;19;20012;-87
2023/05/28 09:38:11;;;;;;;16.63;5.75;;;;;;;22.75;44.88;102375.94;6119331;19;20003;-84
2023/05/28 09:40:16;;;;;;;15.93;5.68;;;;;;;22.47;45.86;102372.44;6118662;19;20021;-85
2023/05/28 09:42:24;;;;;;;15.18;5.38;;;;;;;22.67;46.31;102370.22;6115884;19;20036;-83
2023/05/28 09:44:34;;;;;;;15.05;4.90;;;;;;;23.13;45.82;102372.47;6114236;19;20017;-84
2023/05/28 09:46:42;;;;;;;16.80;5.53;;;;;;;23.18;46.45;102368.50;6087648;19;20006;-85
2023/05/28 09:48:52;;;;;;;16.85;5.85;;;;;;;23.14;45.38;102368.81;6112862;19;20030;-84
2023/05/28 09:50:58;;;;;;;13.60;5.50;;;;;;;23.19;45.41;102380.09;6111638;19;20010;-82
2023/05/28 09:53:19;;;;;;;17.48;5.95;;;;;;;23.29;46.22;102377.63;6104391;19;20010;-83